Time;durP1;ratioP1;P1;durP2;ratioP2;P2;SDS_P1;SDS_P2;PMS_P1;PMS_P2;Temp;Humidity;BMP_temperature;BMP_pressure;BME280_temperature;BME280_humidity;BME280_pressure;Samples;Min_cycle;Max_cycle;Signal;HPM_P1;HPM_P2
2023/10/06 00:01:44;;;;;;;12.65;5.57;;;9.10;99.90;;;;;;4905558;29;20021;-77
2023/10/06 00:04:12;;;;;;;13.52;6.45;;;9.10;99.90;;;;;;4901139;29;20029;-78
2023/10/06 00:06:42;;;;;;;16.30;8.35;;;9.00;99.90;;;;;;4886371;29;20043;-78
2023/10/06 00:09:09;;;;;;;13.95;7.45;;;9.10;99.90;;;;;;4887943;29;20032;-78
2023/10/06 00:11:37;;;;;;;16.95;7.75;;;9.10;99.90;;;;;;4887405;29;20060;-77
2023/10/06 00:14:07;;;;;;;18.80;7.85;;;9.10;99.90;;;;;;4903813;29;20073;-78
2023/10/06 00:16:40;;;;;;;19.33;8.50;;;9.10;99.90;;;;;;4871751;29;20032;-76
2023/10/06 00:19:31;;;;;;;16.88;8.27;;;9.10;99.90;;;;;;4887349;29;20045;-78
2023/10/06 00:24:37;;;;;;;17.17;6.93;;;9.00;99.90;;;;;;4886808;29;20029;-78
2023/10/06 00:27:03;;;;;;;17.23;7.22;;;9.00;99.90;;;;;;4887566;29;20417;-78
2023/10/06 00:29:30;;;;;;;16.73;7.57;;;8.90;99.90;;;;;;4876211;29;20029;-78
2023/10/06 06:45:39;;;;;;;12.50;6.72;;;9.30;99.90;;;;;;4952711;23;20342;-78
2023/10/06 06:48:30;;;;;;;11.32;6.25;;;9.30;99.90;;;;;;4885128;29;20209;-78
2023/10/06 06:51:04;;;;;;;12.38;6.70;;;9.20;99.90;;;;;;4888933;29;20055;-78
2023/10/06 06:53:31;;;;;;;10.30;6.53;;;9.20;99.90;;;;;;4888832;29;20041;-76
2023/10/06 06:55:59;;;;;;;12.93;6.63;;;9.20;99.90;;;;;;4889231;29;20021;-76
2023/10/06 06:58:26;;;;;;;;;;;9.20;99.90;;;;;;4858152;29;20040;-76
2023/10/06 07:00:52;;;;;;;12.52;7.13;;;9.20;99.90;;;;;;4888921;29;19916;-76
2023/10/06 07:03:20;;;;;;;10.70;6.88;;;9.30;99.90;;;;;;4889170;29;20121;-77
2023/10/06 07:05:45;;;;;;;14.85;7.50;;;9.40;99.90;;;;;;4888981;29;20021;-76
2023/10/06 07:08:15;;;;;;;11.85;7.13;;;9.40;99.90;;;;;;4872492;29;20341;-77
2023/10/06 07:10:46;;;;;;;11.25;6.93;;;9.50;99.90;;;;;;4889195;29;20052;-78
2023/10/06 07:13:12;;;;;;;12.20;6.22;;;9.60;99.90;;;;;;4839413;29;20072;-76
2023/10/06 07:15:37;;;;;;;13.20;6.35;;;9.60;99.90;;;;;;4870500;29;20041;-75
2023/10/06 07:18:03;;;;;;;10.57;6.00;;;9.60;99.90;;;;;;4884162;29;20035;-76
2023/10/06 07:20:30;;;;;;;12.30;6.65;;;9.70;99.90;;;;;;4888917;29;20296;-76
2023/10/06 07:23:00;;;;;;;8.57;5.65;;;9.80;99.90;;;;;;4888704;29;20045;-76
2023/10/06 07:25:39;;;;;;;8.25;5.30;;;9.80;99.90;;;;;;4889171;29;20032;-77
2023/10/06 07:28:07;;;;;;;9.20;5.80;;;9.90;99.90;;;;;;4871870;29;20348;-77
2023/10/06 07:30:36;;;;;;;10.10;5.30;;;10.00;99.90;;;;;;4889236;29;20314;-77
2023/10/06 07:33:03;;;;;;;12.23;6.10;;;10.10;99.90;;;;;;4888689;29;20084;-77
2023/10/06 07:35:36;;;;;;;10.88;5.47;;;10.20;99.90;;;;;;4872329;29;20215;-77
2023/10/06 07:38:03;;;;;;;10.02;5.45;;;10.20;99.90;;;;;;4888132;29;20330;-75
2023/10/06 07:40:29;;;;;;;10.60;5.50;;;10.30;99.90;;;;;;4888906;29;20029;-76
2023/10/06 07:42:55;;;;;;;10.25;5.60;;;10.40;99.90;;;;;;4887747;29;20068;-76
2023/10/06 07:45:21;;;;;;;13.52;6.00;;;10.50;99.90;;;;;;4889029;29;20048;-76
2023/10/06 07:47:59;;;;;;;12.73;5.85;;;10.60;99.90;;;;;;4888284;29;20036;-77
2023/10/06 07:50:29;;;;;;;11.50;5.45;;;10.70;99.90;;;;;;4888811;29;20036;-78
2023/10/06 07:52:57;;;;;;;12.70;5.45;;;10.80;99.90;;;;;;4871637;29;20063;-78
2023/10/06 07:55:23;;;;;;;11.32;5.10;;;10.90;99.90;;;;;;4888853;29;20037;-78
2023/10/06 07:57:51;;;;;;;9.43;4.80;;;11.00;99.90;;;;;;4856335;29;20031;-78
2023/10/06 08:00:30;;;;;;;9.25;5.20;;;11.00;99.90;;;;;;4871738;29;20104;-78
2023/10/06 08:03:03;;;;;;;12.95;5.72;;;11.00;99.90;;;;;;4871191;29;20032;-78
2023/10/06 08:05:29;;;;;;;12.45;5.28;;;11.20;99.90;;;;;;4888381;29;20322;-78
2023/10/06 08:08:16;;;;;;;9.50;5.13;;;11.20;99.90;;;;;;4888008;29;20048;-79
2023/10/06 08:10:42;;;;;;;17.60;5.93;;;11.30;99.90;;;;;;4855843;29;20037;-80
2023/10/06 08:13:08;;;;;;;10.18;5.05;;;11.40;99.90;;;;;;4871265;29;20068;-78
2023/10/06 08:15:35;;;;;;;11.25;5.05;;;11.50;99.90;;;;;;4871699;29;20021;-77
2023/10/06 08:18:01;;;;;;;11.27;5.50;;;11.60;99.90;;;;;;4871594;29;20033;-78
2023/10/06 08:20:27;;;;;;;10.77;5.55;;;11.60;99.90;;;;;;4888517;29;20029;-79
2023/10/06 08:22:57;;;;;;;9.68;5.22;;;11.60;99.90;;;;;;4871805;29;20077;-79
2023/10/06 08:25:24;;;;;;;8.93;5.05;;;11.70;99.90;;;;;;4888636;29;20084;-78
2023/10/06 08:27:51;;;;;;;11.07;5.40;;;11.60;99.90;;;;;;4855123;29;20049;-78
2023/10/06 08:30:21;;;;;;;11.50;5.82;;;11.80;99.90;;;;;;4871858;29;20048;-78
2023/10/06 08:32:49;;;;;;;11.38;5.53;;;11.90;99.90;;;;;;4871929;29;20092;-79
2023/10/06 08:35:15;;;;;;;9.88;5.22;;;12.10;99.90;;;;;;4888652;29;20299;-77
2023/10/06 08:37:42;;;;;;;10.88;5.97;;;12.20;99.90;;;;;;4888244;29;20036;-76
2023/10/06 08:40:16;;;;;;;11.95;5.80;;;12.30;99.90;;;;;;4887847;29;20041;-77
2023/10/06 08:42:51;;;;;;;10.52;5.72;;;12.40;99.90;;;;;;4872117;29;20036;-77
2023/10/06 08:45:28;;;;;;;9.15;5.63;;;12.50;99.90;;;;;;4888308;29;20052;-78
2023/10/06 08:47:58;;;;;;;8.68;5.35;;;12.60;99.90;;;;;;4888308;29;20045;-77
2023/10/06 08:50:27;;;;;;;11.77;6.13;;;12.60;99.90;;;;;;4888285;29;20310;-78
2023/10/06 08:52:54;;;;;;;9.65;5.97;;;12.80;99.90;;;;;;4887748;29;20088;-78
2023/10/06 08:55:21;;;;;;;10.85;5.93;;;12.90;99.90;;;;;;4874484;29;20341;-77
2023/10/06 08:57:58;;;;;;;9.48;6.15;;;13.00;99.90;;;;;;4891577;29;20043;-76
2023/10/06 09:00:31;;;;;;;10.73;5.82;;;13.10;99.90;;;;;;4875113;29;20051;-77
2023/10/06 09:03:07;;;;;;;16.02;6.63;;;13.30;99.90;;;;;;4891056;29;20045;-76
2023/10/06 09:05:42;;;;;;;17.17;7.00;;;13.40;99.90;;;;;;4875066;29;20056;-78
2023/10/06 09:08:17;;;;;;;15.95;6.72;;;13.60;99.90;;;;;;4891066;29;20255;-76
2023/10/06 09:10:55;;;;;;;15.32;7.22;;;13.80;99.90;;;;;;4891396;29;20040;-76
2023/10/06 09:13:23;;;;;;;;;;;14.00;99.90;;;;;;4891932;29;20065;-75
2023/10/06 09:16:12;;;;;;;16.73;6.97;;;14.10;99.90;;;;;;4891373;29;19907;-76
2023/10/06 09:19:06;;;;;;;19.10;7.95;;;14.30;99.90;;;;;;4877370;29;20032;-79
2023/10/06 09:22:11;;;;;;;17.02;7.65;;;14.50;99.90;;;;;;4874573;29;20333;-78
2023/10/06 09:24:39;;;;;;;20.83;7.85;;;14.70;99.90;;;;;;4874435;29;20056;-78
2023/10/06 09:27:26;;;;;;;13.68;6.88;;;14.90;99.90;;;;;;4858510;29;20060;-77
2023/10/06 09:30:21;;;;;;;22.27;8.70;;;15.00;99.90;;;;;;4891032;29;20056;-78
2023/10/06 09:32:49;;;;;;;19.10;7.85;;;15.10;99.90;;;;;;4891496;29;20041;-78
2023/10/06 09:35:37;;;;;;;17.65;7.25;;;15.20;99.80;;;;;;4859547;29;20060;-77
2023/10/06 09:38:13;;;;;;;14.13;6.55;;;15.30;99.60;;;;;;4890592;29;20305;-76
2023/10/06 09:40:46;;;;;;;13.27;6.05;;;15.40;99.30;;;;;;4873781;29;20327;-76
2023/10/06 09:43:16;;;;;;;14.95;6.88;;;15.60;98.90;;;;;;4858629;29;20041;-77
2023/10/06 09:45:43;;;;;;;12.07;5.38;;;15.80;98.50;;;;;;4890353;29;20267;-76
2023/10/06 09:48:26;;;;;;;12.98;5.57;;;15.90;97.60;;;;;;4890176;29;20032;-77
2023/10/06 09:50:57;;;;;;;13.55;5.50;;;16.00;97.60;;;;;;4890540;29;20157;-76
2023/10/06 09:53:28;;;;;;;11.13;5.13;;;16.10;97.20;;;;;;4890836;29;20084;-78
2023/10/06 09:56:09;;;;;;;11.05;5.30;;;16.30;96.60;;;;;;4890374;29;20045;-77
2023/10/06 09:58:44;;;;;;;13.40;5.78;;;16.40;96.20;;;;;;4890725;29;20318;-78
2023/10/06 10:01:10;;;;;;;15.20;5.75;;;16.50;96.00;;;;;;4873678;29;20047;-79
2023/10/06 10:03:43;;;;;;;10.25;5.13;;;16.60;95.90;;;;;;4890382;29;20096;-78
2023/10/06 10:06:10;;;;;;;14.25;5.28;;;16.70;95.80;;;;;;4889191;29;20025;-79
2023/10/06 10:08:47;;;;;;;10.30;5.40;;;16.80;95.50;;;;;;4873802;29;20033;-78
2023/10/06 10:11:23;;;;;;;14.35;5.60;;;17.00;95.20;;;;;;4887354;29;20342;-76
2023/10/06 10:14:36;;;;;;;14.25;6.00;;;17.10;95.00;;;;;;4873473;29;20069;-77
2023/10/06 10:17:13;;;;;;;13.68;5.45;;;17.20;94.40;;;;;;4890012;29;20100;-76
2023/10/06 10:19:43;;;;;;;11.55;5.43;;;17.30;94.10;;;;;;4890286;29;20376;-77
2023/10/06 10:22:16;;;;;;;12.82;5.07;;;17.50;94.10;;;;;;4890583;29;20063;-77
2023/10/06 10:24:44;;;;;;;15.98;5.18;;;17.50;93.70;;;;;;4890103;29;20028;-78
2023/10/06 10:27:18;;;;;;;10.13;5.28;;;17.70;93.80;;;;;;4889598;29;20041;-77
2023/10/06 10:29:44;;;;;;;11.90;5.82;;;17.80;93.60;;;;;;4873560;29;20077;-78
2023/10/06 10:32:29;;;;;;;11.45;5.75;;;17.90;93.40;;;;;;4873265;29;20045;-77
2023/10/06 10:35:31;;;;;;;11.45;5.13;;;18.10;93.30;;;;;;4873230;29;20033;-77
2023/10/06 10:37:57;;;;;;;14.48;6.45;;;18.20;93.00;;;;;;4872971;29;20152;-78
2023/10/06 10:40:48;;;;;;;15.75;5.80;;;18.40;92.60;;;;;;4873376;29;20029;-78
2023/10/06 10:43:27;;;;;;;12.68;5.15;;;18.60;92.20;;;;;;4872637;29;20036;-78
2023/10/06 10:45:59;;;;;;;9.98;4.93;;;19.00;91.70;;;;;;4871583;29;20068;-77
2023/10/06 10:48:47;;;;;;;14.38;4.85;;;19.30;91.00;;;;;;4873026;29;20058;-79
2023/10/06 10:51:38;;;;;;;13.32;5.20;;;19.70;90.80;;;;;;4889351;29;20037;-77
2023/10/06 10:54:24;;;;;;;11.77;4.57;;;20.20;89.40;;;;;;4888990;29;20315;-78
2023/10/06 10:57:21;;;;;;;11.20;4.85;;;20.60;88.00;;;;;;4873941;29;20053;-77
2023/10/06 11:02:48;;;;;;;10.13;4.75;;;21.90;83.70;;;;;;4889466;29;20057;-77
2023/10/06 11:05:18;;;;;;;14.75;5.32;;;22.50;81.70;;;;;;4888897;29;20251;-76
2023/10/06 11:08:02;;;;;;;10.68;4.95;;;23.00;79.60;;;;;;4889201;29;20081;-78
2023/10/06 11:10:28;;;;;;;10.38;4.53;;;23.50;78.00;;;;;;4889294;29;20341;-78
2023/10/06 11:13:19;;;;;;;8.15;4.45;;;24.20;76.00;;;;;;4872560;29;20089;-77
2023/10/06 11:16:10;;;;;;;7.50;4.07;;;24.80;73.50;;;;;;4875396;29;20032;-78
2023/10/06 11:18:41;;;;;;;6.78;3.97;;;25.50;72.10;;;;;;4888879;29;20037;-77
2023/10/06 11:21:24;;;;;;;10.50;4.45;;;25.90;70.60;;;;;;4872283;29;20049;-77
2023/10/06 11:23:50;;;;;;;10.23;4.35;;;26.60;69.00;;;;;;4888839;29;20108;-78
2023/10/06 11:26:30;;;;;;;10.57;4.05;;;26.80;66.90;;;;;;4872292;29;20036;-76
2023/10/06 11:28:56;;;;;;;7.03;3.90;;;27.60;66.70;;;;;;4889309;29;20048;-79
2023/10/06 11:31:23;;;;;;;8.35;4.22;;;27.70;65.20;;;;;;4856818;29;20375;-78
2023/10/06 11:33:49;;;;;;;11.43;4.35;;;27.80;64.20;;;;;;4872476;29;20020;-77
2023/10/06 11:36:21;;;;;;;6.70;3.75;;;28.10;63.60;;;;;;4897127;29;20029;-77
2023/10/06 11:38:48;;;;;;;6.85;3.42;;;28.60;62.80;;;;;;4905439;29;20032;-78
2023/10/06 11:41:27;;;;;;;8.88;4.22;;;28.90;62.30;;;;;;4865821;29;20037;-78
2023/10/06 11:43:54;;;;;;;9.43;3.95;;;28.90;60.80;;;;;;4880378;29;20063;-78
2023/10/06 11:46:27;;;;;;;8.43;4.32;;;28.90;61.20;;;;;;4896286;29;20048;-78
2023/10/06 11:49:33;;;;;;;9.32;4.00;;;30.00;59.80;;;;;;4874971;29;20131;-79
2023/10/06 11:52:02;;;;;;;5.97;3.58;;;29.60;59.00;;;;;;4888464;29;20040;-76
2023/10/06 11:54:29;;;;;;;8.40;4.15;;;29.90;58.80;;;;;;4888480;29;20032;-75
2023/10/06 11:56:57;;;;;;;8.65;4.30;;;30.30;58.30;;;;;;4888456;29;20031;-77
2023/10/06 11:59:23;;;;;;;9.23;4.38;;;30.30;58.20;;;;;;4871732;29;20041;-76
2023/10/06 12:01:49;;;;;;;7.68;4.07;;;30.50;57.40;;;;;;4871996;29;20108;-78
2023/10/06 12:04:30;;;;;;;9.77;3.90;;;31.10;57.00;;;;;;4888214;29;20013;-77
2023/10/06 12:06:56;;;;;;;9.88;4.30;;;31.40;56.30;;;;;;4872117;29;20037;-75
2023/10/06 12:09:24;;;;;;;8.68;4.28;;;31.70;55.20;;;;;;4856345;29;20041;-77
2023/10/06 12:11:50;;;;;;;6.28;3.65;;;32.00;55.10;;;;;;4871890;29;20027;-80
2023/10/06 12:14:15;;;;;;;7.90;4.05;;;32.00;55.00;;;;;;4888519;29;20065;-74
2023/10/06 12:16:44;;;;;;;7.85;4.35;;;32.40;54.30;;;;;;4888382;29;20196;-76
2023/10/06 12:19:13;;;;;;;7.85;4.20;;;32.40;53.90;;;;;;4853658;29;20032;-78
2023/10/06 12:24:26;;;;;;;9.05;4.35;;;33.20;52.50;;;;;;4870041;29;20029;-76
2023/10/06 12:27:28;;;;;;;10.38;4.80;;;32.60;52.50;;;;;;4853314;29;20204;-77
2023/10/06 12:29:55;;;;;;;7.25;3.83;;;32.20;53.00;;;;;;4785295;29;20059;-77
2023/10/06 12:32:21;;;;;;;8.07;4.25;;;32.60;53.40;;;;;;4801348;29;20074;-74
2023/10/06 12:34:48;;;;;;;9.10;3.50;;;33.00;52.20;;;;;;4816614;29;20043;-76
2023/10/06 12:37:15;;;;;;;7.20;3.75;;;34.00;51.40;;;;;;4817823;29;20037;-75
2023/10/06 12:39:45;;;;;;;7.47;4.10;;;34.50;51.50;;;;;;4834226;29;20042;-76
2023/10/06 12:42:11;;;;;;;6.80;3.88;;;35.00;50.10;;;;;;4838089;29;20042;-76
2023/10/06 12:44:42;;;;;;;8.27;3.93;;;34.60;49.50;;;;;;4819108;29;20091;-77
2023/10/06 12:47:14;;;;;;;10.50;4.63;;;35.70;50.00;;;;;;4834114;29;20058;-77
2023/10/06 12:49:43;;;;;;;7.47;4.13;;;35.70;48.50;;;;;;4834468;29;20045;-79
2023/10/06 12:52:10;;;;;;;9.25;3.78;;;35.40;48.60;;;;;;4834018;29;20153;-80
2023/10/06 12:54:51;;;;;;;10.97;4.30;;;35.60;48.70;;;;;;4834236;29;20339;-80
2023/10/06 12:57:17;;;;;;;11.85;4.70;;;35.80;48.50;;;;;;4835543;29;20093;-76
2023/10/06 12:59:43;;;;;;;6.90;3.90;;;35.70;48.30;;;;;;4834372;29;20061;-76
2023/10/06 13:02:08;;;;;;;7.38;4.15;;;35.50;48.40;;;;;;4833877;29;20030;-76
2023/10/06 13:04:34;;;;;;;6.50;3.80;;;34.50;48.60;;;;;;4834488;29;20106;-78
2023/10/06 13:07:00;;;;;;;7.90;4.10;;;33.90;50.20;;;;;;4855236;29;20106;-78
2023/10/06 13:09:27;;;;;;;9.45;4.10;;;32.40;50.50;;;;;;4889981;29;20033;-77
2023/10/06 13:11:53;;;;;;;10.53;4.70;;;32.40;52.50;;;;;;4891464;29;20052;-76
2023/10/06 13:14:18;;;;;;;8.60;4.35;;;33.20;50.50;;;;;;4890744;29;20485;-77
2023/10/06 13:16:45;;;;;;;5.90;3.65;;;33.50;51.10;;;;;;4890910;29;20067;-77
2023/10/06 13:19:11;;;;;;;8.23;4.38;;;34.10;49.20;;;;;;4880445;29;20041;-77
2023/10/06 13:21:36;;;;;;;9.70;4.00;;;34.70;48.80;;;;;;4872285;29;20057;-76
2023/10/06 13:24:05;;;;;;;8.73;4.32;;;35.50;48.00;;;;;;4855855;29;20056;-77
2023/10/06 13:26:34;;;;;;;7.03;4.05;;;35.70;47.70;;;;;;4856215;29;20097;-78
2023/10/06 13:29:00;;;;;;;8.98;4.13;;;35.80;47.60;;;;;;4872230;29;20041;-76
2023/10/06 13:31:26;;;;;;;10.15;4.28;;;36.10;47.20;;;;;;4872027;29;20372;-75
2023/10/06 13:33:52;;;;;;;14.02;4.55;;;36.10;47.00;;;;;;4871179;29;20029;-77
2023/10/06 13:36:18;;;;;;;7.90;4.13;;;36.70;46.70;;;;;;4871832;29;20096;-77
2023/10/06 13:38:44;;;;;;;7.95;4.13;;;36.80;46.40;;;;;;4883200;29;20203;-78
2023/10/06 13:41:11;;;;;;;8.73;4.15;;;36.40;46.50;;;;;;4890185;29;20055;-77
2023/10/06 13:43:37;;;;;;;8.27;4.70;;;36.10;46.80;;;;;;4890409;29;20044;-77
2023/10/06 13:46:06;;;;;;;8.63;4.20;;;35.50;47.40;;;;;;4890188;29;20041;-75
2023/10/06 13:48:32;;;;;;;8.10;4.77;;;35.20;47.80;;;;;;4890616;29;20259;-75
2023/10/06 13:50:59;;;;;;;10.85;4.72;;;35.30;47.80;;;;;;4891088;29;20043;-75
2023/10/06 13:53:27;;;;;;;7.75;4.22;;;35.80;47.20;;;;;;4890537;29;20032;-76
2023/10/06 13:55:57;;;;;;;8.32;4.00;;;36.70;46.30;;;;;;4890576;29;20107;-76
2023/10/06 13:58:26;;;;;;;8.93;4.28;;;37.50;45.70;;;;;;4890267;29;20334;-77
2023/10/06 14:00:55;;;;;;;6.72;4.05;;;37.50;45.50;;;;;;4874337;29;20100;-78
2023/10/06 14:03:22;;;;;;;10.20;4.30;;;37.20;45.30;;;;;;4858041;29;20029;-77
2023/10/06 14:05:55;;;;;;;9.27;4.70;;;36.70;45.10;;;;;;4890188;29;20409;-77
2023/10/06 14:08:21;;;;;;;7.80;4.10;;;36.10;45.80;;;;;;4890115;29;20089;-76
2023/10/06 14:10:49;;;;;;;8.35;4.63;;;36.10;46.20;;;;;;4890574;29;20045;-76
2023/10/06 14:13:27;;;;;;;10.73;4.00;;;36.10;46.10;;;;;;4873476;29;20049;-77
2023/10/06 14:18:24;;;;;;;10.25;4.95;;;35.90;46.30;;;;;;4873304;29;20207;-75
2023/10/06 14:20:54;;;;;;;7.53;4.00;;;35.40;46.40;;;;;;4890135;29;20024;-77
2023/10/06 14:23:54;;;;;;;8.38;4.63;;;34.50;47.40;;;;;;4873232;29;20043;-77
2023/10/06 14:26:13;;;;;;;9.48;4.65;;;33.30;48.40;;;;;;4886628;29;20100;-76
2023/10/06 14:28:44;;;;;;;8.15;4.00;;;32.30;49.20;;;;;;4889926;29;20064;-76
2023/10/06 14:31:16;;;;;;;9.07;4.30;;;31.30;51.30;;;;;;4889520;29;20105;-76
2023/10/06 14:33:47;;;;;;;9.55;4.75;;;30.60;52.00;;;;;;4890189;29;20029;-77
2023/10/06 14:46:49;;;;;;;8.15;3.83;;;28.30;56.60;;;;;;4889986;29;20037;-76
2023/10/06 14:49:23;;;;;;;10.80;5.13;;;29.20;55.10;;;;;;4889111;29;20052;-79
2023/10/06 14:51:54;;;;;;;9.18;3.92;;;30.20;53.70;;;;;;4889184;29;20044;-77
2023/10/06 14:54:21;;;;;;;10.80;4.60;;;30.90;52.50;;;;;;4857076;29;20024;-80
2023/10/06 14:56:47;;;;;;;11.02;4.38;;;31.20;51.70;;;;;;4889562;29;20081;-77
2023/10/06 14:59:12;;;;;;;9.10;4.53;;;32.20;51.20;;;;;;4889071;29;20045;-76
2023/10/06 15:01:39;;;;;;;8.30;4.30;;;31.90;50.80;;;;;;4889382;29;20033;-77
2023/10/06 15:04:12;;;;;;;8.17;3.93;;;31.30;51.40;;;;;;4873211;29;20021;-76
2023/10/06 15:06:47;;;;;;;8.98;4.25;;;30.30;52.50;;;;;;4889489;29;20101;-78
2023/10/06 15:09:19;;;;;;;9.73;4.32;;;29.80;53.00;;;;;;4889076;29;20131;-76
2023/10/06 15:11:46;;;;;;;10.93;4.05;;;29.20;53.80;;;;;;4889139;29;20047;-74
2023/10/06 15:14:13;;;;;;;9.43;4.07;;;28.50;55.00;;;;;;4888948;29;20047;-74
2023/10/06 15:16:40;;;;;;;11.07;4.65;;;28.10;55.40;;;;;;4889265;29;20073;-75
2023/10/06 15:19:06;;;;;;;9.95;4.43;;;28.00;55.70;;;;;;4889163;29;20063;-75
2023/10/06 15:21:34;;;;;;;9.48;4.25;;;27.60;56.10;;;;;;4889006;29;20061;-76
2023/10/06 15:24:00;;;;;;;;;;;27.10;58.10;;;;;;4889959;29;20024;-75
2023/10/06 15:26:26;;;;;;;8.85;4.10;;;26.80;58.20;;;;;;4888813;29;19915;-75
2023/10/06 15:28:55;;;;;;;11.25;4.30;;;26.70;59.20;;;;;;4889044;29;20043;-75
2023/10/06 15:31:21;;;;;;;9.27;4.00;;;26.30;59.00;;;;;;4888275;29;20334;-77
2023/10/06 15:33:48;;;;;;;7.63;4.18;;;25.90;59.20;;;;;;4872558;29;20037;-75
2023/10/06 15:36:16;;;;;;;7.35;4.05;;;25.50;60.20;;;;;;4888733;29;20041;-76
2023/10/06 15:38:43;;;;;;;9.48;4.10;;;25.40;60.40;;;;;;4889101;29;20021;-76
2023/10/06 15:41:10;;;;;;;10.38;3.95;;;25.20;60.90;;;;;;4888442;29;20093;-76
2023/10/06 15:43:36;;;;;;;9.63;4.43;;;25.10;62.50;;;;;;4888575;29;20052;-77
2023/10/06 15:46:05;;;;;;;9.20;4.18;;;25.00;62.00;;;;;;4888748;29;20040;-76
2023/10/06 15:48:35;;;;;;;9.63;4.63;;;25.00;61.60;;;;;;4888601;29;20084;-76
2023/10/06 15:51:09;;;;;;;11.65;4.50;;;24.90;62.10;;;;;;4853720;29;20029;-79
2023/10/06 15:53:39;;;;;;;11.10;3.80;;;24.90;62.60;;;;;;4853519;29;20104;-77
2023/10/06 15:56:13;;;;;;;10.60;3.42;;;24.60;62.60;;;;;;4870600;29;20094;-76
2023/10/06 15:58:44;;;;;;;8.35;3.70;;;24.20;62.40;;;;;;4870454;29;20045;-75
2023/10/06 16:01:14;;;;;;;8.32;3.45;;;23.80;64.20;;;;;;4869576;29;20033;-78
2023/10/06 16:03:41;;;;;;;7.63;3.35;;;23.60;64.10;;;;;;4882784;29;20217;-77
2023/10/06 16:06:09;;;;;;;8.87;3.60;;;23.30;64.50;;;;;;4892865;29;20032;-75
2023/10/06 16:08:38;;;;;;;7.40;3.20;;;23.10;64.70;;;;;;4891234;29;20472;-76
2023/10/06 16:11:08;;;;;;;7.85;3.08;;;22.70;65.50;;;;;;4892438;29;20037;-74
2023/10/06 16:13:35;;;;;;;11.23;3.70;;;22.60;66.30;;;;;;4892112;29;20033;-77
2023/10/06 16:16:00;;;;;;;7.60;3.15;;;22.30;66.90;;;;;;4876136;29;20329;-75
2023/10/06 16:18:29;;;;;;;7.40;3.22;;;22.10;67.10;;;;;;4892197;29;20029;-76
2023/10/06 16:20:56;;;;;;;10.57;4.25;;;22.00;68.20;;;;;;4890275;29;20040;-76
2023/10/06 16:23:23;;;;;;;8.57;3.40;;;22.00;68.80;;;;;;4891603;29;20021;-74
2023/10/06 16:25:50;;;;;;;6.88;3.00;;;21.80;69.20;;;;;;4892185;29;20065;-75
2023/10/06 16:28:18;;;;;;;9.68;3.95;;;21.70;69.00;;;;;;4890561;29;20025;-75
2023/10/06 16:30:44;;;;;;;9.70;3.67;;;21.60;69.00;;;;;;4891875;29;20013;-76
2023/10/06 16:33:11;;;;;;;8.18;3.78;;;21.40;70.20;;;;;;4892249;29;20029;-76
2023/10/06 16:35:39;;;;;;;10.07;4.20;;;21.20;70.50;;;;;;4892497;29;20108;-75
2023/10/06 16:38:05;;;;;;;8.40;3.95;;;21.00;70.60;;;;;;4892502;29;20126;-76
2023/10/06 16:40:34;;;;;;;10.68;4.07;;;20.90;71.80;;;;;;4872765;29;20036;-74
2023/10/06 16:43:00;;;;;;;10.93;5.00;;;20.80;72.10;;;;;;4892129;29;20025;-76
2023/10/06 16:45:33;;;;;;;7.95;4.18;;;20.70;72.70;;;;;;4891554;29;20053;-74
2023/10/06 16:48:11;;;;;;;10.70;4.55;;;20.50;73.20;;;;;;4875374;29;20211;-76
2023/10/06 16:50:38;;;;;;;;;;;20.30;74.20;;;;;;4874894;29;20041;-76
2023/10/06 16:53:04;;;;;;;12.43;5.63;;;20.20;74.40;;;;;;4860224;29;19907;-77
2023/10/06 16:55:30;;;;;;;11.68;5.07;;;20.10;75.00;;;;;;4891210;29;20076;-75
2023/10/06 16:57:56;;;;;;;7.70;3.67;;;20.00;75.10;;;;;;4891978;29;20053;-78
2023/10/06 17:00:22;;;;;;;10.43;4.80;;;19.90;75.50;;;;;;4889963;29;20040;-76
2023/10/06 17:02:48;;;;;;;9.75;4.20;;;19.70;75.90;;;;;;4866806;29;20037;-77
2023/10/06 17:05:16;;;;;;;11.57;4.65;;;19.70;76.50;;;;;;4871829;29;20021;-77
2023/10/06 17:07:43;;;;;;;;;;;19.60;76.70;;;;;;4873342;29;20029;-76
2023/10/06 17:10:09;;;;;;;10.93;5.32;;;19.50;77.10;;;;;;4885299;29;19916;-76
2023/10/06 17:12:39;;;;;;;9.20;4.43;;;19.40;77.30;;;;;;4859316;29;20020;-75
2023/10/06 17:15:10;;;;;;;12.07;4.90;;;19.30;77.90;;;;;;4891053;29;20029;-77
2023/10/06 17:17:43;;;;;;;11.65;4.70;;;19.20;78.30;;;;;;4886896;29;20036;-75
2023/10/06 17:20:17;;;;;;;11.60;4.57;;;19.10;78.50;;;;;;4872865;29;20037;-76
2023/10/06 17:22:46;;;;;;;10.23;4.45;;;19.10;78.20;;;;;;4875932;29;20218;-76
2023/10/06 17:25:16;;;;;;;9.27;4.00;;;19.00;78.10;;;;;;4874692;29;20084;-74
2023/10/06 17:27:46;;;;;;;8.15;3.85;;;19.00;78.50;;;;;;4891307;29;20311;-75
2023/10/06 17:30:13;;;;;;;12.52;4.60;;;18.90;78.10;;;;;;4874858;29;20222;-78
2023/10/06 17:32:38;;;;;;;11.48;3.85;;;18.80;78.20;;;;;;4890788;29;20103;-77
2023/10/06 17:35:05;;;;;;;9.35;3.72;;;18.70;78.00;;;;;;4859260;29;20065;-77
2023/10/06 17:37:33;;;;;;;8.32;3.60;;;18.70;78.50;;;;;;4889215;29;20016;-77
2023/10/06 17:40:00;;;;;;;8.35;4.03;;;18.50;78.80;;;;;;4875399;29;20063;-77
2023/10/06 17:42:29;;;;;;;8.13;3.83;;;18.50;79.40;;;;;;4888844;29;20315;-76
2023/10/06 17:44:56;;;;;;;9.85;4.35;;;18.40;79.60;;;;;;4889560;29;20222;-77
2023/10/06 17:47:22;;;;;;;10.90;4.95;;;18.40;80.20;;;;;;4890416;29;20048;-77
2023/10/06 17:49:50;;;;;;;8.93;4.60;;;18.30;80.70;;;;;;4890300;29;20041;-77
2023/10/06 17:52:16;;;;;;;11.88;5.15;;;18.20;80.90;;;;;;4890590;29;20248;-76
2023/10/06 17:54:45;;;;;;;10.13;4.68;;;18.20;81.00;;;;;;4891380;29;20029;-76
2023/10/06 17:57:10;;;;;;;10.15;4.53;;;18.10;81.30;;;;;;4890598;29;20241;-78
2023/10/06 17:59:37;;;;;;;10.23;5.20;;;18.00;81.40;;;;;;4873579;29;20151;-77
2023/10/06 18:02:04;;;;;;;13.18;5.30;;;18.00;81.70;;;;;;4890733;29;20109;-76
2023/10/06 18:04:30;;;;;;;8.93;4.88;;;17.90;81.80;;;;;;4873750;29;20029;-74
2023/10/06 18:06:56;;;;;;;14.43;5.82;;;17.80;81.90;;;;;;4890664;29;20196;-74
2023/10/06 18:09:24;;;;;;;13.73;5.47;;;17.80;82.30;;;;;;4890090;29;20112;-76
2023/10/06 18:11:51;;;;;;;12.95;5.10;;;17.70;82.90;;;;;;4890837;29;20033;-77
2023/10/06 18:14:17;;;;;;;14.60;5.80;;;17.50;84.30;;;;;;4891004;29;20024;-77
2023/10/06 18:16:44;;;;;;;11.55;5.93;;;17.30;86.10;;;;;;4873699;29;20104;-81
2023/10/06 18:19:10;;;;;;;14.98;6.20;;;17.00;86.70;;;;;;4874026;29;20207;-78
2023/10/06 18:21:39;;;;;;;16.38;5.65;;;16.90;87.30;;;;;;4873350;29;20021;-77
2023/10/06 18:24:06;;;;;;;13.07;6.05;;;16.70;87.70;;;;;;4876526;29;20033;-79
2023/10/06 18:26:32;;;;;;;12.48;6.25;;;16.60;88.20;;;;;;4870290;29;20060;-77
2023/10/06 18:28:58;;;;;;;12.50;5.85;;;16.50;88.90;;;;;;4871360;29;20362;-79
2023/10/06 18:31:25;;;;;;;15.18;6.35;;;16.40;88.40;;;;;;4854546;29;20025;-76
2023/10/06 18:33:51;;;;;;;11.88;6.53;;;16.30;88.60;;;;;;4870854;29;20037;-76
2023/10/06 18:36:16;;;;;;;16.23;7.15;;;16.30;89.00;;;;;;4871527;29;20029;-76
2023/10/06 18:38:43;;;;;;;13.60;6.93;;;16.20;89.20;;;;;;4881913;29;20028;-76
2023/10/06 18:41:12;;;;;;;11.30;5.95;;;16.10;90.00;;;;;;4888395;29;20044;-76
2023/10/06 18:43:38;;;;;;;15.15;6.72;;;15.90;90.10;;;;;;4874421;29;20029;-77
2023/10/06 18:46:05;;;;;;;13.23;6.78;;;15.80;90.40;;;;;;4875321;29;20057;-75
2023/10/06 18:48:31;;;;;;;12.98;6.57;;;15.70;90.50;;;;;;4875718;29;20033;-75
2023/10/06 18:50:58;;;;;;;18.02;6.78;;;15.60;90.70;;;;;;4887913;29;20141;-77
2023/10/06 18:53:25;;;;;;;12.88;7.03;;;15.50;91.10;;;;;;4872578;29;20045;-75
2023/10/06 18:55:53;;;;;;;11.73;6.28;;;15.40;91.40;;;;;;4883132;29;20052;-76
2023/10/06 18:58:19;;;;;;;;;;;15.30;91.20;;;;;;4885303;29;20108;-77
2023/10/06 19:00:49;;;;;;;15.57;6.28;;;15.30;91.20;;;;;;4887801;29;19907;-76
2023/10/06 19:03:16;;;;;;;11.57;5.82;;;15.20;91.10;;;;;;4885238;29;20052;-75
2023/10/06 19:05:48;;;;;;;16.02;7.43;;;15.20;91.30;;;;;;4883060;29;20375;-75
2023/10/06 19:08:15;;;;;;;14.82;6.60;;;15.10;91.60;;;;;;4882799;29;20064;-75
2023/10/06 19:10:45;;;;;;;13.80;6.63;;;15.00;91.50;;;;;;4881769;29;20029;-74
2023/10/06 19:13:13;;;;;;;12.18;5.60;;;14.90;92.10;;;;;;4884206;29;20096;-76
2023/10/06 19:15:42;;;;;;;10.32;5.80;;;14.80;92.10;;;;;;4881734;29;20032;-76
2023/10/06 19:18:09;;;;;;;11.13;5.82;;;14.80;92.40;;;;;;4883235;29;20029;-75
2023/10/06 19:20:38;;;;;;;12.10;5.00;;;14.70;92.60;;;;;;4879789;29;20203;-75
2023/10/06 19:23:05;;;;;;;12.68;6.10;;;14.60;92.60;;;;;;4885271;29;20051;-76
2023/10/06 19:25:31;;;;;;;14.82;6.68;;;14.50;92.90;;;;;;4881184;29;20037;-75
2023/10/06 19:27:57;;;;;;;11.13;5.63;;;14.50;93.10;;;;;;4887684;29;20032;-76
2023/10/06 19:30:22;;;;;;;12.27;5.50;;;14.40;93.40;;;;;;4887455;29;20112;-75
2023/10/06 19:32:48;;;;;;;21.23;6.18;;;14.30;93.30;;;;;;4871160;29;20029;-76
2023/10/06 19:35:17;;;;;;;12.70;5.38;;;14.20;93.30;;;;;;4888445;29;20029;-76